createdAt,value
2018-09-03T00:02:45.229Z,52.56
2018-09-03T00:07:48.918Z,52.27
2018-09-03T00:12:52.615Z,52.75
2018-09-03T00:17:56.958Z,52.42
2018-09-03T00:23:00.647Z,52.52
2018-09-03T00:28:04.582Z,52.52
2018-09-03T00:33:13.575Z,52.75
2018-09-03T00:38:22.508Z,52.78
2018-09-03T00:43:31.573Z,52.50
2018-09-03T00:48:35.270Z,52.75
2018-09-03T00:53:38.914Z,52.37
2018-09-03T00:58:42.552Z,52.38
2018-09-03T01:03:46.256Z,52.82
2018-09-03T01:08:49.948Z,52.54
2018-09-03T01:13:54.333Z,52.73
2018-09-03T01:18:58.361Z,52.63
2018-09-03T01:24:02.008Z,52.62
2018-09-03T01:29:05.783Z,52.59
2018-09-03T01:34:09.472Z,52.10
2018-09-03T01:39:13.134Z,52.48
2018-09-03T01:44:16.747Z,52.39
2018-09-03T01:49:20.443Z,52.38
2018-09-03T01:54:24.070Z,52.37
2018-09-03T01:59:27.820Z,52.35
2018-09-03T02:04:31.490Z,52.49
2018-09-03T02:09:35.153Z,52.51
2018-09-03T02:14:38.770Z,52.23
2018-09-03T02:19:45.395Z,52.40
2018-09-03T02:24:48.989Z,52.35
2018-09-03T02:29:52.615Z,52.60
2018-09-03T02:34:56.223Z,52.48
2018-09-03T02:39:59.902Z,52.57
2018-09-03T02:45:07.357Z,52.52
2018-09-03T02:50:10.974Z,52.36
2018-09-03T02:55:15.162Z,52.49
2018-09-03T03:00:18.817Z,52.51
2018-09-03T03:05:22.525Z,52.75
2018-09-03T03:10:26.192Z,52.64
2018-09-03T03:15:29.833Z,52.55
2018-09-03T03:20:33.484Z,52.66
2018-09-03T03:25:37.125Z,52.49
2018-09-03T03:30:40.756Z,52.53
2018-09-03T03:35:44.466Z,52.52
2018-09-03T03:40:48.242Z,52.52
2018-09-03T03:45:51.965Z,53.99
2018-09-03T03:50:55.636Z,53.94
2018-09-03T03:55:59.293Z,53.12
2018-09-03T04:01:02.923Z,53.21
2018-09-03T04:06:06.804Z,53.26
2018-09-03T04:11:10.436Z,52.88
2018-09-03T04:16:14.156Z,53.86
2018-09-03T04:21:17.855Z,53.87
2018-09-03T04:26:21.470Z,53.51
2018-09-03T04:31:25.148Z,53.41
2018-09-03T04:36:28.831Z,54.69
2018-09-03T04:41:32.482Z,55.44
2018-09-03T04:46:36.145Z,55.36
2018-09-03T04:51:39.822Z,55.21
2018-09-03T04:56:43.495Z,54.78
2018-09-03T05:01:47.238Z,54.45
2018-09-03T05:06:50.828Z,54.22
2018-09-03T05:11:54.491Z,55.27
2018-09-03T05:16:58.070Z,54.75
2018-09-03T05:22:01.707Z,54.42
2018-09-03T05:27:05.367Z,54.74
2018-09-03T05:32:09.034Z,55.27
2018-09-03T05:37:12.678Z,55.07
2018-09-03T05:42:16.358Z,55.87
2018-09-03T05:47:20.119Z,55.67
2018-09-03T05:52:23.739Z,55.99
2018-09-03T05:57:27.445Z,55.86
2018-09-03T06:02:31.079Z,56.23
2018-09-03T06:07:34.790Z,56.59
2018-09-03T06:12:38.969Z,56.29
2018-09-03T06:17:42.609Z,56.65
2018-09-03T06:22:49.221Z,57.17
2018-09-03T06:27:52.874Z,57.50
2018-09-03T06:32:56.541Z,57.75
2018-09-03T06:38:00.275Z,57.05
2018-09-03T06:43:03.934Z,57.04
2018-09-03T06:48:07.566Z,56.94
2018-09-03T06:53:11.178Z,58.72
2018-09-03T06:58:14.790Z,60.20
2018-09-03T07:03:18.542Z,61.11
2018-09-03T07:08:22.204Z,61.19
2018-09-03T07:13:25.866Z,61.85
2018-09-03T07:18:29.570Z,62.57
2018-09-03T07:23:33.213Z,61.99
2018-09-03T07:28:36.810Z,62.20
2018-09-03T07:33:40.449Z,62.35
2018-09-03T07:38:44.166Z,62.65
2018-09-03T07:43:47.852Z,63.99
2018-09-03T07:48:51.581Z,63.26
2018-09-03T07:53:55.244Z,63.09
2018-09-03T07:58:59.386Z,63.08
2018-09-03T08:04:03.068Z,63.55
2018-09-03T08:09:08.676Z,64.97
2018-09-03T08:14:12.542Z,64.55
2018-09-03T08:19:16.205Z,64.92
2018-09-03T08:24:19.853Z,63.95
2018-09-03T08:29:23.541Z,62.94
2018-09-03T08:34:27.293Z,62.07
2018-09-03T08:39:30.912Z,62.58
2018-09-03T08:44:34.522Z,62.25
2018-09-03T08:49:38.216Z,62.78
2018-09-03T08:54:42.006Z,62.09
2018-09-03T08:59:45.668Z,62.25
2018-09-03T09:04:49.345Z,62.08
2018-09-03T09:09:53.069Z,62.15
2018-09-03T09:14:56.706Z,62.44
2018-09-03T09:20:00.451Z,62.54
2018-09-03T09:25:05.834Z,62.30
2018-09-03T09:30:09.470Z,62.16
2018-09-03T09:35:13.156Z,61.90
2018-09-03T09:40:16.744Z,61.58
2018-09-03T09:45:20.356Z,61.52
2018-09-03T09:50:24.020Z,61.50
2018-09-03T09:55:27.711Z,61.40
2018-09-03T10:00:36.536Z,60.84
2018-09-03T10:05:40.145Z,60.73
2018-09-03T10:10:43.827Z,61.06
2018-09-03T10:15:47.531Z,60.91
2018-09-03T10:20:51.218Z,59.90
2018-09-03T10:25:54.877Z,59.89
2018-09-03T10:30:58.599Z,60.14
2018-09-03T10:36:02.356Z,59.88
2018-09-03T10:41:06.209Z,59.90
2018-09-03T10:46:09.840Z,59.66
2018-09-03T10:51:13.514Z,60.49
2018-09-03T10:56:17.187Z,59.71
2018-09-03T11:01:20.899Z,59.77
2018-09-03T11:06:24.566Z,59.73
2018-09-03T11:11:28.327Z,59.70
2018-09-03T11:16:32.606Z,60.10
2018-09-03T11:21:36.385Z,59.23
2018-09-03T11:26:39.915Z,58.60
2018-09-03T11:31:43.582Z,59.31
2018-09-03T11:36:47.196Z,58.56
2018-09-03T11:41:50.807Z,58.55
2018-09-03T11:46:54.552Z,58.53
2018-09-03T11:51:58.284Z,58.43
2018-09-03T11:57:02.051Z,57.39
2018-09-03T12:02:06.370Z,57.74
2018-09-03T12:07:10.046Z,57.02
2018-09-03T12:12:13.695Z,57.03
2018-09-03T12:17:17.414Z,57.13
2018-09-03T12:22:21.171Z,57.13
2018-09-03T12:27:24.835Z,57.31
2018-09-03T12:32:28.560Z,57.09
2018-09-03T12:37:32.515Z,57.22
2018-09-03T12:42:36.148Z,56.96
2018-09-03T12:47:39.950Z,56.57
2018-09-03T12:52:43.614Z,56.81
2018-09-03T12:57:47.319Z,56.40
2018-09-03T13:02:51.432Z,57.03
2018-09-03T13:07:54.999Z,56.72
2018-09-03T13:12:58.687Z,56.04
2018-09-03T13:18:02.357Z,58.43
2018-09-03T13:23:06.096Z,59.69
2018-09-03T13:28:09.775Z,58.09
2018-09-03T13:38:41.238Z,58.72
2018-09-03T13:43:44.912Z,59.08
2018-09-03T13:48:48.688Z,59.67
2018-09-03T13:53:52.363Z,57.99
2018-09-03T13:58:56.066Z,59.75
2018-09-03T14:03:59.722Z,58.76
2018-09-03T14:09:03.901Z,57.33
2018-09-03T14:14:07.565Z,56.69
2018-09-03T14:19:11.287Z,56.75
2018-09-03T14:24:14.969Z,57.08
2018-09-03T14:29:18.827Z,58.62
2018-09-03T14:34:22.560Z,59.95
2018-09-03T14:39:26.275Z,59.56
2018-09-03T14:44:30.027Z,57.99
2018-09-03T14:49:33.854Z,57.71
2018-09-03T14:54:37.477Z,57.28
2018-09-03T14:59:41.618Z,57.86
2018-09-03T15:04:45.322Z,59.01
2018-09-03T15:09:49.831Z,59.09
2018-09-03T15:14:53.542Z,58.67
2018-09-03T15:19:58.049Z,58.39
2018-09-03T15:25:07.325Z,59.80
2018-09-03T15:30:11.155Z,58.58
2018-09-03T15:35:15.342Z,59.38
2018-09-03T15:40:19.049Z,58.86
2018-09-03T15:45:22.702Z,58.04
2018-09-03T15:50:26.345Z,57.62
2018-09-03T15:55:30.078Z,57.10
2018-09-03T16:00:33.782Z,58.35
2018-09-03T16:05:37.552Z,57.70
2018-09-03T16:10:41.357Z,58.08
2018-09-03T16:15:45.063Z,57.20
2018-09-03T16:20:48.729Z,57.01
2018-09-03T16:25:52.411Z,58.05
2018-09-03T16:30:56.082Z,57.77
2018-09-03T16:35:59.824Z,57.47
2018-09-03T16:41:03.480Z,56.90
2018-09-03T16:46:07.133Z,58.82
2018-09-03T16:51:11.166Z,58.44
2018-09-03T16:56:14.798Z,60.67
2018-09-03T17:01:20.544Z,59.93
2018-09-03T17:06:24.106Z,59.57
2018-09-03T17:11:27.938Z,59.58
2018-09-03T17:16:31.626Z,60.03
2018-09-03T17:21:35.831Z,58.48
2018-09-03T17:26:41.131Z,57.73
2018-09-03T17:31:44.770Z,57.76
2018-09-03T17:36:49.275Z,59.10
2018-09-03T17:41:54.065Z,59.08
2018-09-03T17:46:58.906Z,60.11
2018-09-03T17:52:03.758Z,59.88
2018-09-03T17:57:08.111Z,59.67
2018-09-03T18:02:12.810Z,60.63
2018-09-03T18:07:17.521Z,61.36
2018-09-03T18:12:22.081Z,61.00
2018-09-03T18:17:26.758Z,60.45
2018-09-03T18:22:32.266Z,60.89
2018-09-03T18:59:44.823Z,57.13
2018-09-03T19:05:20.081Z,58.88
2018-09-03T21:14:30.577Z,57.08
2018-09-03T21:19:34.705Z,57.25
2018-09-03T21:24:39.412Z,56.56
2018-09-03T21:29:43.681Z,55.96
2018-09-03T21:34:48.549Z,56.86
2018-09-03T21:39:52.302Z,56.75
2018-09-03T21:44:56.182Z,57.10
2018-09-03T21:49:59.888Z,56.78
2018-09-03T21:55:07.497Z,58.44
2018-09-03T22:00:11.757Z,57.20
2018-09-03T22:05:15.597Z,55.96
2018-09-03T22:10:19.415Z,55.92
2018-09-03T22:15:23.118Z,56.07
2018-09-03T22:20:27.518Z,55.88
2018-09-03T22:25:31.291Z,55.93
2018-09-03T22:30:35.690Z,55.60
2018-09-03T22:35:40.416Z,55.55
2018-09-03T22:40:44.166Z,55.72
2018-09-03T22:45:47.989Z,55.40
2018-09-03T22:50:51.751Z,55.50
2018-09-03T22:55:55.549Z,55.37
2018-09-03T23:00:59.235Z,55.35
2018-09-03T23:06:03.055Z,55.32
2018-09-03T23:11:06.974Z,55.24
2018-09-03T23:16:10.646Z,55.00
2018-09-03T23:21:14.625Z,54.90
2018-09-03T23:26:18.407Z,55.00
2018-09-03T23:31:22.246Z,54.55
2018-09-03T23:36:25.874Z,54.66
2018-09-03T23:41:29.594Z,54.87
2018-09-03T23:46:33.465Z,54.37
2018-09-03T23:51:37.142Z,54.40
2018-09-03T23:56:40.806Z,54.63
